Time,TemperatureF,DewpointF,PressureIn,WindDirection,WindDirectionDegrees,WindSpeedMPH,WindSpeedGustMPH,Humidity,HourlyPrecipIn,Conditions,Clouds,dailyrainin,SoftwareType,DateUTC
2013-03-14 06:10:00,47.0,42.0,-100.00,SSE,150,3.0,5.0,82,-99.99,,,-99.99,,2013-03-14 13:10:00,
2013-03-14 07:02:00,47.0,42.0,-100.00,SSE,150,3.0,5.0,82,-99.99,,,-99.99,,2013-03-14 14:02:00,
2013-03-14 08:02:00,46.0,42.0,-100.00,SSW,205,3.0,3.0,85,-99.99,,,-99.99,,2013-03-14 15:02:00,
2013-03-14 09:00:00,47.0,42.0,-100.00,ESE,115,3.0,5.0,82,-99.99,,,-99.99,,2013-03-14 16:00:00,
2013-03-14 10:10:00,50.0,43.0,-100.00,East,100,5.0,7.0,76,-99.99,,,-99.99,,2013-03-14 17:10:00,
2013-03-14 11:02:00,50.0,43.0,-100.00,East,100,5.0,7.0,76,-99.99,,,-99.99,,2013-03-14 18:02:00,
2013-03-14 11:20:00,51.0,43.0,-100.00,SSE,155,9.0,10.0,73,-99.99,,,-99.99,,2013-03-14 18:20:00,
2013-03-14 12:02:00,51.0,43.0,-100.00,SSE,155,9.0,10.0,73,-99.99,,,-99.99,,2013-03-14 19:02:00,
2013-03-14 12:12:00,51.0,43.0,-100.00,SSE,155,9.0,10.0,73,-99.99,,,-99.99,,2013-03-14 19:12:00,
2013-03-14 14:02:00,53.0,44.0,-100.00,ESE,105,6.0,9.0,71,-99.99,,,-99.99,,2013-03-14 21:02:00,
2013-03-14 14:10:00,54.0,44.0,-100.00,NE,40,2.0,3.0,68,-99.99,,,-99.99,,2013-03-14 21:10:00,
2013-03-14 14:12:00,53.0,44.0,-100.00,ESE,105,6.0,9.0,71,-99.99,,,-99.99,,2013-03-14 21:12:00,
2013-03-14 15:03:00,54.0,44.0,-100.00,NE,40,2.0,3.0,68,-99.99,,,-99.99,,2013-03-14 22:03:00,
2013-03-14 16:02:00,56.0,44.0,-100.00,SSE,160,1.0,3.0,63,-99.99,,,-99.99,,2013-03-14 23:02:00,
2013-03-14 16:12:00,56.0,44.0,-100.00,SSE,160,1.0,3.0,63,-99.99,,,-99.99,,2013-03-14 23:12:00,
2013-03-14 17:02:00,58.0,45.0,-100.00,SW,235,2.0,5.0,61,-99.99,,,-99.99,,2013-03-15 00:02:00,
2013-03-14 18:02:00,60.0,45.0,-100.00,WNW,295,5.0,6.0,57,-99.99,,,-99.99,,2013-03-15 01:02:00,
2013-03-14 18:11:00,60.0,45.0,-100.00,WNW,295,5.0,6.0,57,-99.99,,,-99.99,,2013-03-15 01:11:00,
2013-03-14 19:02:00,63.0,45.0,-100.00,East,100,2.0,3.0,51,-99.99,,,-99.99,,2013-03-15 02:02:00,
2013-03-14 20:02:00,55.0,45.0,-100.00,East,90,1.0,5.0,68,-99.99,,,-99.99,,2013-03-15 03:02:00,
2013-03-14 20:12:00,55.0,45.0,-100.00,East,90,1.0,5.0,68,-99.99,,,-99.99,,2013-03-15 03:12:00,
2013-03-14 21:03:00,55.0,35.0,-100.00,SSE,155,2.0,5.0,46,-99.99,,,-99.99,,2013-03-15 04:03:00,
2013-03-14 22:02:00,55.0,33.0,-100.00,SSE,165,7.0,12.0,43,-99.99,,,-99.99,,2013-03-15 05:02:00,
2013-03-14 22:12:00,55.0,33.0,-100.00,SSE,165,7.0,12.0,43,-99.99,,,-99.99,,2013-03-15 05:12:00,
2013-03-14 23:02:00,53.0,33.0,-100.00,SSE,155,10.0,14.0,46,-99.99,,,-99.99,,2013-03-15 06:02:00,
2013-03-14 23:10:00,48.0,34.0,-100.00,SSE,160,5.0,7.0,58,-99.99,,,-99.99,,2013-03-15 06:10:00,